sensor_id;sensor_type;location;lat;lon;timestamp;P1;durP1;ratioP1;P2;durP2;ratioP2
48285;SDS011;34102;47.716;10.296;2023-06-04T00:02:24;9.77;;;7.32;;
48285;SDS011;34102;47.716;10.296;2023-06-04T00:04:50;10.30;;;7.32;;
48285;SDS011;34102;47.716;10.296;2023-06-04T00:07:15;8.38;;;6.18;;
48285;SDS011;34102;47.716;10.296;2023-06-04T00:09:41;13.88;;;7.88;;
48285;SDS011;34102;47.716;10.296;2023-06-04T00:12:06;10.40;;;7.25;;
48285;SDS011;34102;47.716;10.296;2023-06-04T00:14:32;9.57;;;6.97;;
48285;SDS011;34102;47.716;10.296;2023-06-04T00:16:57;10.05;;;6.72;;
48285;SDS011;34102;47.716;10.296;2023-06-04T00:19:23;12.48;;;7.78;;
48285;SDS011;34102;47.716;10.296;2023-06-04T00:21:48;11.48;;;7.78;;
48285;SDS011;34102;47.716;10.296;2023-06-04T00:24:13;9.05;;;6.72;;
48285;SDS011;34102;47.716;10.296;2023-06-04T00:26:39;9.05;;;6.70;;
48285;SDS011;34102;47.716;10.296;2023-06-04T00:29:05;10.57;;;6.55;;
48285;SDS011;34102;47.716;10.296;2023-06-04T00:31:30;10.38;;;7.10;;
48285;SDS011;34102;47.716;10.296;2023-06-04T00:33:55;11.20;;;6.28;;
48285;SDS011;34102;47.716;10.296;2023-06-04T00:36:21;7.95;;;6.22;;
48285;SDS011;34102;47.716;10.296;2023-06-04T00:38:46;10.18;;;6.82;;
48285;SDS011;34102;47.716;10.296;2023-06-04T00:41:13;11.98;;;6.60;;
48285;SDS011;34102;47.716;10.296;2023-06-04T00:43:38;10.40;;;7.28;;
48285;SDS011;34102;47.716;10.296;2023-06-04T00:46:05;12.18;;;7.30;;
48285;SDS011;34102;47.716;10.296;2023-06-04T00:48:31;9.50;;;6.30;;
48285;SDS011;34102;47.716;10.296;2023-06-04T00:50:57;12.45;;;7.28;;
48285;SDS011;34102;47.716;10.296;2023-06-04T00:53:23;9.57;;;6.85;;
48285;SDS011;34102;47.716;10.296;2023-06-04T00:55:48;11.27;;;6.63;;
48285;SDS011;34102;47.716;10.296;2023-06-04T00:58:14;14.90;;;7.28;;
48285;SDS011;34102;47.716;10.296;2023-06-04T01:00:40;12.35;;;6.95;;
48285;SDS011;34102;47.716;10.296;2023-06-04T01:03:10;9.23;;;6.75;;
48285;SDS011;34102;47.716;10.296;2023-06-04T01:05:37;11.75;;;7.00;;
48285;SDS011;34102;47.716;10.296;2023-06-04T01:08:05;8.50;;;6.10;;
48285;SDS011;34102;47.716;10.296;2023-06-04T01:10:34;9.55;;;6.93;;
48285;SDS011;34102;47.716;10.296;2023-06-04T01:12:59;10.65;;;7.13;;
48285;SDS011;34102;47.716;10.296;2023-06-04T01:15:25;12.25;;;7.07;;
48285;SDS011;34102;47.716;10.296;2023-06-04T01:17:51;8.75;;;7.20;;
48285;SDS011;34102;47.716;10.296;2023-06-04T01:25:42;13.10;;;9.00;;
48285;SDS011;34102;47.716;10.296;2023-06-04T01:28:09;10.45;;;6.60;;
48285;SDS011;34102;47.716;10.296;2023-06-04T01:30:38;10.48;;;7.40;;
48285;SDS011;34102;47.716;10.296;2023-06-04T01:33:15;11.00;;;7.32;;
48285;SDS011;34102;47.716;10.296;2023-06-04T01:35:40;7.22;;;6.13;;
48285;SDS011;34102;47.716;10.296;2023-06-04T01:38:06;11.05;;;6.95;;
48285;SDS011;34102;47.716;10.296;2023-06-04T01:40:32;10.02;;;6.63;;
48285;SDS011;34102;47.716;10.296;2023-06-04T01:42:58;11.10;;;7.15;;
48285;SDS011;34102;47.716;10.296;2023-06-04T01:45:24;10.15;;;7.85;;
48285;SDS011;34102;47.716;10.296;2023-06-04T01:47:50;11.73;;;7.40;;
48285;SDS011;34102;47.716;10.296;2023-06-04T01:50:15;12.70;;;7.55;;
48285;SDS011;34102;47.716;10.296;2023-06-04T01:52:42;11.13;;;7.43;;
48285;SDS011;34102;47.716;10.296;2023-06-04T01:55:08;11.52;;;7.50;;
48285;SDS011;34102;47.716;10.296;2023-06-04T01:57:34;11.10;;;7.03;;
48285;SDS011;34102;47.716;10.296;2023-06-04T02:00:01;9.70;;;7.18;;
48285;SDS011;34102;47.716;10.296;2023-06-04T02:02:26;8.85;;;7.13;;
48285;SDS011;34102;47.716;10.296;2023-06-04T02:04:52;11.43;;;7.93;;
48285;SDS011;34102;47.716;10.296;2023-06-04T02:07:18;9.80;;;7.35;;
48285;SDS011;34102;47.716;10.296;2023-06-04T02:09:46;10.93;;;7.10;;
48285;SDS011;34102;47.716;10.296;2023-06-04T02:12:11;13.73;;;7.35;;
48285;SDS011;34102;47.716;10.296;2023-06-04T02:14:39;9.95;;;7.30;;
48285;SDS011;34102;47.716;10.296;2023-06-04T02:17:07;10.35;;;7.40;;
48285;SDS011;34102;47.716;10.296;2023-06-04T02:19:37;9.02;;;6.80;;
48285;SDS011;34102;47.716;10.296;2023-06-04T02:22:05;10.98;;;7.30;;
48285;SDS011;34102;47.716;10.296;2023-06-04T02:24:30;11.18;;;7.43;;
48285;SDS011;34102;47.716;10.296;2023-06-04T02:26:55;13.00;;;7.45;;
48285;SDS011;34102;47.716;10.296;2023-06-04T02:29:21;9.90;;;7.00;;
48285;SDS011;34102;47.716;10.296;2023-06-04T02:31:46;11.57;;;7.90;;
48285;SDS011;34102;47.716;10.296;2023-06-04T02:34:12;13.63;;;7.78;;
48285;SDS011;34102;47.716;10.296;2023-06-04T02:36:38;12.23;;;7.85;;
48285;SDS011;34102;47.716;10.296;2023-06-04T02:39:03;10.32;;;7.78;;
48285;SDS011;34102;47.716;10.296;2023-06-04T02:41:28;9.32;;;7.60;;
48285;SDS011;34102;47.716;10.296;2023-06-04T02:43:54;13.02;;;7.93;;
48285;SDS011;34102;47.716;10.296;2023-06-04T02:46:19;10.57;;;8.32;;
48285;SDS011;34102;47.716;10.296;2023-06-04T02:48:45;11.63;;;8.23;;
48285;SDS011;34102;47.716;10.296;2023-06-04T02:51:10;11.63;;;7.50;;
48285;SDS011;34102;47.716;10.296;2023-06-04T02:53:36;10.25;;;7.88;;
48285;SDS011;34102;47.716;10.296;2023-06-04T02:56:02;13.80;;;10.25;;
48285;SDS011;34102;47.716;10.296;2023-06-04T02:58:27;12.05;;;7.50;;
48285;SDS011;34102;47.716;10.296;2023-06-04T03:00:54;10.55;;;7.88;;
48285;SDS011;34102;47.716;10.296;2023-06-04T03:03:22;12.13;;;7.95;;
48285;SDS011;34102;47.716;10.296;2023-06-04T03:05:47;13.20;;;8.27;;
48285;SDS011;34102;47.716;10.296;2023-06-04T03:08:13;14.63;;;8.27;;
48285;SDS011;34102;47.716;10.296;2023-06-04T03:10:39;10.25;;;7.85;;
48285;SDS011;34102;47.716;10.296;2023-06-04T03:13:04;14.63;;;8.93;;
48285;SDS011;34102;47.716;10.296;2023-06-04T03:15:30;9.60;;;7.80;;
48285;SDS011;34102;47.716;10.296;2023-06-04T03:17:55;13.05;;;8.60;;
48285;SDS011;34102;47.716;10.296;2023-06-04T03:20:20;10.13;;;7.07;;
48285;SDS011;34102;47.716;10.296;2023-06-04T03:22:50;14.77;;;8.55;;
48285;SDS011;34102;47.716;10.296;2023-06-04T03:25:15;10.32;;;8.05;;
48285;SDS011;34102;47.716;10.296;2023-06-04T03:27:41;14.60;;;8.55;;
48285;SDS011;34102;47.716;10.296;2023-06-04T03:30:06;12.57;;;8.05;;
48285;SDS011;34102;47.716;10.296;2023-06-04T03:32:55;10.85;;;8.73;;
48285;SDS011;34102;47.716;10.296;2023-06-04T03:35:21;10.75;;;7.90;;
48285;SDS011;34102;47.716;10.296;2023-06-04T03:37:46;11.13;;;8.27;;
48285;SDS011;34102;47.716;10.296;2023-06-04T03:40:12;10.52;;;7.57;;
48285;SDS011;34102;47.716;10.296;2023-06-04T03:42:40;10.88;;;8.30;;
48285;SDS011;34102;47.716;10.296;2023-06-04T03:45:06;9.45;;;6.97;;
48285;SDS011;34102;47.716;10.296;2023-06-04T03:47:33;9.52;;;6.50;;
48285;SDS011;34102;47.716;10.296;2023-06-04T03:50:00;9.73;;;6.30;;
48285;SDS011;34102;47.716;10.296;2023-06-04T03:52:25;9.10;;;7.03;;
48285;SDS011;34102;47.716;10.296;2023-06-04T03:54:52;10.13;;;6.07;;
48285;SDS011;34102;47.716;10.296;2023-06-04T03:57:17;9.60;;;6.57;;
48285;SDS011;34102;47.716;10.296;2023-06-04T03:59:43;11.52;;;6.55;;
48285;SDS011;34102;47.716;10.296;2023-06-04T04:02:09;8.88;;;6.35;;
48285;SDS011;34102;47.716;10.296;2023-06-04T04:04:34;8.70;;;6.78;;
48285;SDS011;34102;47.716;10.296;2023-06-04T04:06:59;8.88;;;6.40;;
48285;SDS011;34102;47.716;10.296;2023-06-04T04:09:28;10.40;;;6.30;;
48285;SDS011;34102;47.716;10.296;2023-06-04T04:11:54;8.90;;;6.43;;
48285;SDS011;34102;47.716;10.296;2023-06-04T04:14:19;8.20;;;5.70;;
48285;SDS011;34102;47.716;10.296;2023-06-04T04:16:45;7.00;;;5.90;;
48285;SDS011;34102;47.716;10.296;2023-06-04T04:19:11;9.88;;;6.70;;
48285;SDS011;34102;47.716;10.296;2023-06-04T04:21:39;8.27;;;5.53;;
48285;SDS011;34102;47.716;10.296;2023-06-04T04:24:05;8.82;;;6.25;;
48285;SDS011;34102;47.716;10.296;2023-06-04T04:26:32;7.85;;;6.00;;
48285;SDS011;34102;47.716;10.296;2023-06-04T04:28:58;9.30;;;6.05;;
48285;SDS011;34102;47.716;10.296;2023-06-04T04:31:27;12.20;;;6.43;;
48285;SDS011;34102;47.716;10.296;2023-06-04T04:33:54;7.85;;;6.60;;
48285;SDS011;34102;47.716;10.296;2023-06-04T04:36:20;7.00;;;5.68;;
48285;SDS011;34102;47.716;10.296;2023-06-04T04:38:47;10.80;;;6.63;;
48285;SDS011;34102;47.716;10.296;2023-06-04T04:41:20;7.93;;;5.93;;
48285;SDS011;34102;47.716;10.296;2023-06-04T04:43:48;8.45;;;5.28;;
48285;SDS011;34102;47.716;10.296;2023-06-04T04:46:27;8.70;;;5.85;;
48285;SDS011;34102;47.716;10.296;2023-06-04T04:48:52;5.55;;;4.95;;
48285;SDS011;34102;47.716;10.296;2023-06-04T04:51:18;7.28;;;5.53;;
48285;SDS011;34102;47.716;10.296;2023-06-04T04:53:43;9.15;;;5.50;;
48285;SDS011;34102;47.716;10.296;2023-06-04T04:56:09;6.60;;;5.40;;
48285;SDS011;34102;47.716;10.296;2023-06-04T04:58:39;5.95;;;5.03;;
48285;SDS011;34102;47.716;10.296;2023-06-04T05:01:04;6.03;;;5.20;;
48285;SDS011;34102;47.716;10.296;2023-06-04T05:03:30;6.40;;;4.60;;
48285;SDS011;34102;47.716;10.296;2023-06-04T05:05:55;5.80;;;4.82;;
48285;SDS011;34102;47.716;10.296;2023-06-04T05:08:21;8.25;;;5.22;;
48285;SDS011;34102;47.716;10.296;2023-06-04T05:10:47;7.68;;;5.05;;
48285;SDS011;34102;47.716;10.296;2023-06-04T05:13:13;6.75;;;4.57;;
48285;SDS011;34102;47.716;10.296;2023-06-04T05:15:48;6.95;;;5.38;;
48285;SDS011;34102;47.716;10.296;2023-06-04T05:18:16;4.55;;;4.15;;
48285;SDS011;34102;47.716;10.296;2023-06-04T05:20:42;5.50;;;4.55;;
48285;SDS011;34102;47.716;10.296;2023-06-04T05:23:13;5.30;;;4.57;;
48285;SDS011;34102;47.716;10.296;2023-06-04T05:25:40;9.43;;;4.90;;
48285;SDS011;34102;47.716;10.296;2023-06-04T05:28:06;7.65;;;5.05;;
48285;SDS011;34102;47.716;10.296;2023-06-04T05:30:32;5.60;;;4.30;;
48285;SDS011;34102;47.716;10.296;2023-06-04T05:32:59;6.05;;;4.95;;
48285;SDS011;34102;47.716;10.296;2023-06-04T05:35:27;4.55;;;4.10;;
48285;SDS011;34102;47.716;10.296;2023-06-04T05:37:53;6.95;;;4.60;;
48285;SDS011;34102;47.716;10.296;2023-06-04T05:40:22;7.15;;;4.80;;
48285;SDS011;34102;47.716;10.296;2023-06-04T05:42:48;6.15;;;4.57;;
48285;SDS011;34102;47.716;10.296;2023-06-04T05:45:14;5.45;;;4.32;;
48285;SDS011;34102;47.716;10.296;2023-06-04T05:47:43;5.82;;;4.22;;
48285;SDS011;34102;47.716;10.296;2023-06-04T05:50:09;6.57;;;4.80;;
48285;SDS011;34102;47.716;10.296;2023-06-04T05:52:35;6.53;;;4.30;;
48285;SDS011;34102;47.716;10.296;2023-06-04T05:55:04;7.75;;;4.53;;
48285;SDS011;34102;47.716;10.296;2023-06-04T05:57:32;5.85;;;4.22;;
48285;SDS011;34102;47.716;10.296;2023-06-04T05:59:58;11.40;;;4.65;;
48285;SDS011;34102;47.716;10.296;2023-06-04T06:02:23;5.80;;;4.80;;
48285;SDS011;34102;47.716;10.296;2023-06-04T06:04:49;7.43;;;4.35;;
48285;SDS011;34102;47.716;10.296;2023-06-04T06:07:14;5.60;;;4.22;;
48285;SDS011;34102;47.716;10.296;2023-06-04T06:09:40;8.20;;;4.60;;
48285;SDS011;34102;47.716;10.296;2023-06-04T06:12:05;4.90;;;3.70;;
48285;SDS011;34102;47.716;10.296;2023-06-04T06:14:32;5.95;;;4.22;;
48285;SDS011;34102;47.716;10.296;2023-06-04T06:16:59;6.28;;;4.07;;
48285;SDS011;34102;47.716;10.296;2023-06-04T06:19:30;6.63;;;4.38;;
48285;SDS011;34102;47.716;10.296;2023-06-04T06:21:55;6.30;;;4.07;;
48285;SDS011;34102;47.716;10.296;2023-06-04T06:24:24;8.55;;;4.40;;
48285;SDS011;34102;47.716;10.296;2023-06-04T06:26:50;7.10;;;4.28;;
48285;SDS011;34102;47.716;10.296;2023-06-04T06:29:18;4.90;;;4.00;;
48285;SDS011;34102;47.716;10.296;2023-06-04T06:31:46;7.90;;;4.82;;
48285;SDS011;34102;47.716;10.296;2023-06-04T06:34:11;5.63;;;4.40;;
48285;SDS011;34102;47.716;10.296;2023-06-04T06:36:36;4.68;;;4.18;;
48285;SDS011;34102;47.716;10.296;2023-06-04T06:39:02;5.22;;;4.13;;
48285;SDS011;34102;47.716;10.296;2023-06-04T06:41:27;5.78;;;4.25;;
48285;SDS011;34102;47.716;10.296;2023-06-04T06:43:55;4.88;;;4.18;;
48285;SDS011;34102;47.716;10.296;2023-06-04T06:46:20;5.43;;;4.47;;
48285;SDS011;34102;47.716;10.296;2023-06-04T06:48:46;5.38;;;4.20;;
48285;SDS011;34102;47.716;10.296;2023-06-04T06:51:12;5.65;;;3.97;;
48285;SDS011;34102;47.716;10.296;2023-06-04T06:53:37;7.65;;;4.22;;
48285;SDS011;34102;47.716;10.296;2023-06-04T06:56:02;5.82;;;3.92;;
48285;SDS011;34102;47.716;10.296;2023-06-04T06:58:28;5.93;;;4.45;;
48285;SDS011;34102;47.716;10.296;2023-06-04T07:00:53;6.53;;;4.63;;
48285;SDS011;34102;47.716;10.296;2023-06-04T07:03:21;7.75;;;4.50;;
48285;SDS011;34102;47.716;10.296;2023-06-04T07:05:47;7.55;;;4.57;;
48285;SDS011;34102;47.716;10.296;2023-06-04T07:08:12;8.82;;;5.03;;
48285;SDS011;34102;47.716;10.296;2023-06-04T07:10:38;5.65;;;4.15;;
48285;SDS011;34102;47.716;10.296;2023-06-04T07:13:03;6.22;;;4.65;;
48285;SDS011;34102;47.716;10.296;2023-06-04T07:15:28;7.38;;;4.55;;
48285;SDS011;34102;47.716;10.296;2023-06-04T07:17:54;6.28;;;4.25;;
48285;SDS011;34102;47.716;10.296;2023-06-04T07:20:19;6.50;;;4.55;;
48285;SDS011;34102;47.716;10.296;2023-06-04T07:22:45;5.63;;;3.75;;
48285;SDS011;34102;47.716;10.296;2023-06-04T07:25:10;6.95;;;4.13;;
48285;SDS011;34102;47.716;10.296;2023-06-04T07:27:36;6.88;;;4.38;;
48285;SDS011;34102;47.716;10.296;2023-06-04T07:30:01;4.75;;;3.92;;
48285;SDS011;34102;47.716;10.296;2023-06-04T07:32:30;7.32;;;3.75;;
48285;SDS011;34102;47.716;10.296;2023-06-04T07:34:55;4.95;;;4.00;;
48285;SDS011;34102;47.716;10.296;2023-06-04T07:39:54;8.18;;;4.45;;
48285;SDS011;34102;47.716;10.296;2023-06-04T07:42:20;6.72;;;3.80;;
48285;SDS011;34102;47.716;10.296;2023-06-04T07:44:45;6.65;;;3.40;;
48285;SDS011;34102;47.716;10.296;2023-06-04T07:47:11;7.93;;;3.35;;
48285;SDS011;34102;47.716;10.296;2023-06-04T07:49:36;6.70;;;3.40;;
48285;SDS011;34102;47.716;10.296;2023-06-04T07:52:01;7.35;;;3.25;;
48285;SDS011;34102;47.716;10.296;2023-06-04T07:54:27;6.50;;;3.50;;
48285;SDS011;34102;47.716;10.296;2023-06-04T07:56:52;6.30;;;3.65;;
48285;SDS011;34102;47.716;10.296;2023-06-04T07:59:21;5.18;;;3.20;;
48285;SDS011;34102;47.716;10.296;2023-06-04T08:01:47;7.40;;;3.45;;
48285;SDS011;34102;47.716;10.296;2023-06-04T08:04:12;6.05;;;2.80;;
48285;SDS011;34102;47.716;10.296;2023-06-04T08:06:37;6.78;;;3.60;;
48285;SDS011;34102;47.716;10.296;2023-06-04T08:09:04;10.35;;;3.60;;
48285;SDS011;34102;47.716;10.296;2023-06-04T08:11:30;5.47;;;3.55;;
48285;SDS011;34102;47.716;10.296;2023-06-04T08:13:55;4.85;;;3.55;;
48285;SDS011;34102;47.716;10.296;2023-06-04T08:16:21;5.80;;;3.58;;
48285;SDS011;34102;47.716;10.296;2023-06-04T08:18:46;6.07;;;3.00;;
48285;SDS011;34102;47.716;10.296;2023-06-04T08:21:11;4.90;;;3.38;;
48285;SDS011;34102;47.716;10.296;2023-06-04T08:23:37;7.97;;;3.67;;
48285;SDS011;34102;47.716;10.296;2023-06-04T08:26:02;7.45;;;3.20;;
48285;SDS011;34102;47.716;10.296;2023-06-04T08:28:28;4.78;;;3.05;;
48285;SDS011;34102;47.716;10.296;2023-06-04T08:30:53;7.97;;;3.63;;
48285;SDS011;34102;47.716;10.296;2023-06-04T08:33:19;8.88;;;3.92;;
48285;SDS011;34102;47.716;10.296;2023-06-04T08:35:44;6.90;;;3.72;;
48285;SDS011;34102;47.716;10.296;2023-06-04T08:38:09;6.40;;;4.18;;
48285;SDS011;34102;47.716;10.296;2023-06-04T08:40:35;6.18;;;4.25;;
48285;SDS011;34102;47.716;10.296;2023-06-04T08:43:01;4.78;;;3.80;;
48285;SDS011;34102;47.716;10.296;2023-06-04T08:45:26;6.40;;;3.97;;
48285;SDS011;34102;47.716;10.296;2023-06-04T08:47:52;8.10;;;3.10;;
48285;SDS011;34102;47.716;10.296;2023-06-04T08:50:20;8.13;;;3.50;;
48285;SDS011;34102;47.716;10.296;2023-06-04T08:52:45;6.32;;;3.78;;
48285;SDS011;34102;47.716;10.296;2023-06-04T08:55:11;5.80;;;3.78;;
48285;SDS011;34102;47.716;10.296;2023-06-04T08:57:39;5.47;;;3.83;;
48285;SDS011;34102;47.716;10.296;2023-06-04T09:00:05;7.60;;;4.13;;
48285;SDS011;34102;47.716;10.296;2023-06-04T09:02:32;9.25;;;4.15;;
48285;SDS011;34102;47.716;10.296;2023-06-04T09:05:02;6.68;;;4.03;;
48285;SDS011;34102;47.716;10.296;2023-06-04T09:07:28;5.25;;;3.80;;
48285;SDS011;34102;47.716;10.296;2023-06-04T09:09:54;5.40;;;3.65;;
48285;SDS011;34102;47.716;10.296;2023-06-04T09:12:23;4.82;;;3.70;;
48285;SDS011;34102;47.716;10.296;2023-06-04T09:14:49;7.03;;;3.75;;
48285;SDS011;34102;47.716;10.296;2023-06-04T09:17:24;4.72;;;3.13;;
48285;SDS011;34102;47.716;10.296;2023-06-04T09:19:50;5.35;;;3.72;;
48285;SDS011;34102;47.716;10.296;2023-06-04T09:22:18;9.15;;;3.55;;
48285;SDS011;34102;47.716;10.296;2023-06-04T09:24:45;5.75;;;3.63;;
48285;SDS011;34102;47.716;10.296;2023-06-04T09:27:12;6.68;;;4.05;;
48285;SDS011;34102;47.716;10.296;2023-06-04T09:29:40;5.57;;;3.40;;
48285;SDS011;34102;47.716;10.296;2023-06-04T09:32:06;5.68;;;3.53;;
48285;SDS011;34102;47.716;10.296;2023-06-04T09:34:31;7.57;;;3.40;;
48285;SDS011;34102;47.716;10.296;2023-06-04T09:36:57;6.65;;;3.38;;
48285;SDS011;34102;47.716;10.296;2023-06-04T09:39:23;5.88;;;3.60;;
48285;SDS011;34102;47.716;10.296;2023-06-04T09:41:57;5.63;;;3.63;;
48285;SDS011;34102;47.716;10.296;2023-06-04T09:44:24;6.72;;;3.70;;
48285;SDS011;34102;47.716;10.296;2023-06-04T09:46:55;4.90;;;3.80;;
48285;SDS011;34102;47.716;10.296;2023-06-04T09:49:21;6.22;;;3.42;;
48285;SDS011;34102;47.716;10.296;2023-06-04T09:51:47;6.40;;;3.80;;
48285;SDS011;34102;47.716;10.296;2023-06-04T09:54:13;4.43;;;3.92;;
48285;SDS011;34102;47.716;10.296;2023-06-04T09:56:39;7.65;;;3.60;;
48285;SDS011;34102;47.716;10.296;2023-06-04T09:59:08;6.82;;;2.97;;
48285;SDS011;34102;47.716;10.296;2023-06-04T10:01:34;5.50;;;3.78;;
48285;SDS011;34102;47.716;10.296;2023-06-04T10:04:06;4.40;;;3.17;;
48285;SDS011;34102;47.716;10.296;2023-06-04T10:06:33;5.25;;;3.75;;
48285;SDS011;34102;47.716;10.296;2023-06-04T10:08:59;5.63;;;3.67;;
48285;SDS011;34102;47.716;10.296;2023-06-04T10:11:34;6.97;;;3.45;;
48285;SDS011;34102;47.716;10.296;2023-06-04T10:14:03;5.72;;;3.90;;
48285;SDS011;34102;47.716;10.296;2023-06-04T10:16:29;4.60;;;3.60;;
48285;SDS011;34102;47.716;10.296;2023-06-04T10:18:55;7.68;;;3.20;;
48285;SDS011;34102;47.716;10.296;2023-06-04T10:21:22;9.68;;;3.70;;
48285;SDS011;34102;47.716;10.296;2023-06-04T10:23:48;8.40;;;3.83;;
48285;SDS011;34102;47.716;10.296;2023-06-04T10:26:14;5.63;;;3.03;;
48285;SDS011;34102;47.716;10.296;2023-06-04T10:28:41;8.30;;;3.42;;
48285;SDS011;34102;47.716;10.296;2023-06-04T10:31:08;4.95;;;3.70;;
48285;SDS011;34102;47.716;10.296;2023-06-04T10:33:33;9.70;;;4.82;;
48285;SDS011;34102;47.716;10.296;2023-06-04T10:36:10;4.53;;;3.17;;
48285;SDS011;34102;47.716;10.296;2023-06-04T10:38:44;8.93;;;3.28;;
48285;SDS011;34102;47.716;10.296;2023-06-04T10:41:13;6.93;;;3.65;;
48285;SDS011;34102;47.716;10.296;2023-06-04T10:43:40;4.55;;;3.35;;
48285;SDS011;34102;47.716;10.296;2023-06-04T10:46:12;8.88;;;3.90;;
48285;SDS011;34102;47.716;10.296;2023-06-04T10:48:44;5.53;;;3.20;;
48285;SDS011;34102;47.716;10.296;2023-06-04T10:51:13;5.43;;;3.70;;
48285;SDS011;34102;47.716;10.296;2023-06-04T10:53:38;6.38;;;3.58;;
48285;SDS011;34102;47.716;10.296;2023-06-04T10:56:04;4.97;;;3.50;;
48285;SDS011;34102;47.716;10.296;2023-06-04T10:58:33;7.10;;;3.63;;
48285;SDS011;34102;47.716;10.296;2023-06-04T11:00:58;9.10;;;4.05;;
48285;SDS011;34102;47.716;10.296;2023-06-04T11:03:34;7.68;;;4.25;;
48285;SDS011;34102;47.716;10.296;2023-06-04T11:06:00;6.47;;;3.35;;
48285;SDS011;34102;47.716;10.296;2023-06-04T11:08:26;4.03;;;2.90;;
48285;SDS011;34102;47.716;10.296;2023-06-04T11:10:53;8.23;;;3.65;;
48285;SDS011;34102;47.716;10.296;2023-06-04T11:13:25;4.50;;;3.10;;
48285;SDS011;34102;47.716;10.296;2023-06-04T11:15:53;5.22;;;3.20;;
48285;SDS011;34102;47.716;10.296;2023-06-04T11:18:19;4.70;;;3.17;;
48285;SDS011;34102;47.716;10.296;2023-06-04T11:20:46;5.43;;;3.92;;
48285;SDS011;34102;47.716;10.296;2023-06-04T11:23:12;7.32;;;3.17;;
48285;SDS011;34102;47.716;10.296;2023-06-04T11:25:38;4.63;;;3.03;;
48285;SDS011;34102;47.716;10.296;2023-06-04T11:28:03;4.78;;;3.35;;
48285;SDS011;34102;47.716;10.296;2023-06-04T11:30:32;5.18;;;3.50;;
48285;SDS011;34102;47.716;10.296;2023-06-04T11:33:01;5.45;;;3.83;;
48285;SDS011;34102;47.716;10.296;2023-06-04T11:35:27;6.43;;;3.35;;
48285;SDS011;34102;47.716;10.296;2023-06-04T11:37:53;4.07;;;3.03;;
48285;SDS011;34102;47.716;10.296;2023-06-04T11:40:19;8.05;;;3.78;;
48285;SDS011;34102;47.716;10.296;2023-06-04T11:42:46;5.20;;;3.08;;
48285;SDS011;34102;47.716;10.296;2023-06-04T11:45:15;5.55;;;3.65;;
48285;SDS011;34102;47.716;10.296;2023-06-04T11:47:45;5.30;;;4.00;;
48285;SDS011;34102;47.716;10.296;2023-06-04T11:50:11;6.85;;;3.55;;
48285;SDS011;34102;47.716;10.296;2023-06-04T11:52:37;5.13;;;3.90;;
48285;SDS011;34102;47.716;10.296;2023-06-04T11:55:02;8.57;;;4.82;;
48285;SDS011;34102;47.716;10.296;2023-06-04T11:57:28;9.32;;;3.78;;
48285;SDS011;34102;47.716;10.296;2023-06-04T11:59:54;6.07;;;3.92;;
48285;SDS011;34102;47.716;10.296;2023-06-04T12:02:19;7.03;;;3.40;;
48285;SDS011;34102;47.716;10.296;2023-06-04T12:04:45;5.25;;;3.47;;
48285;SDS011;34102;47.716;10.296;2023-06-04T12:07:10;8.07;;;3.85;;
48285;SDS011;34102;47.716;10.296;2023-06-04T12:09:36;5.35;;;3.45;;
48285;SDS011;34102;47.716;10.296;2023-06-04T12:12:05;13.52;;;3.97;;
48285;SDS011;34102;47.716;10.296;2023-06-04T12:14:31;6.85;;;3.75;;
48285;SDS011;34102;47.716;10.296;2023-06-04T12:19:25;4.65;;;3.47;;
48285;SDS011;34102;47.716;10.296;2023-06-04T12:22:06;7.97;;;3.70;;
48285;SDS011;34102;47.716;10.296;2023-06-04T12:24:33;7.03;;;3.67;;
48285;SDS011;34102;47.716;10.296;2023-06-04T12:27:01;5.20;;;3.47;;
48285;SDS011;34102;47.716;10.296;2023-06-04T12:29:28;5.65;;;3.58;;
48285;SDS011;34102;47.716;10.296;2023-06-04T12:32:14;6.00;;;3.42;;
48285;SDS011;34102;47.716;10.296;2023-06-04T12:34:40;4.10;;;2.90;;
48285;SDS011;34102;47.716;10.296;2023-06-04T12:37:08;3.88;;;3.00;;
48285;SDS011;34102;47.716;10.296;2023-06-04T12:39:34;5.50;;;3.67;;
48285;SDS011;34102;47.716;10.296;2023-06-04T12:42:01;5.95;;;3.70;;
48285;SDS011;34102;47.716;10.296;2023-06-04T12:44:27;5.82;;;3.33;;
48285;SDS011;34102;47.716;10.296;2023-06-04T12:46:52;6.00;;;3.40;;
48285;SDS011;34102;47.716;10.296;2023-06-04T12:49:17;7.80;;;4.20;;
48285;SDS011;34102;47.716;10.296;2023-06-04T12:51:43;5.05;;;3.03;;
48285;SDS011;34102;47.716;10.296;2023-06-04T12:54:09;6.00;;;3.65;;
48285;SDS011;34102;47.716;10.296;2023-06-04T12:56:34;5.80;;;3.92;;
48285;SDS011;34102;47.716;10.296;2023-06-04T12:59:00;7.05;;;3.25;;
48285;SDS011;34102;47.716;10.296;2023-06-04T13:01:25;4.57;;;3.65;;
48285;SDS011;34102;47.716;10.296;2023-06-04T13:03:54;6.38;;;3.80;;
48285;SDS011;34102;47.716;10.296;2023-06-04T13:06:42;5.78;;;3.50;;
48285;SDS011;34102;47.716;10.296;2023-06-04T13:09:30;7.78;;;3.97;;
48285;SDS011;34102;47.716;10.296;2023-06-04T13:12:09;4.82;;;3.50;;
48285;SDS011;34102;47.716;10.296;2023-06-04T13:14:34;6.18;;;3.70;;
48285;SDS011;34102;47.716;10.296;2023-06-04T13:17:00;5.13;;;3.75;;
48285;SDS011;34102;47.716;10.296;2023-06-04T13:19:26;5.32;;;3.42;;
48285;SDS011;34102;47.716;10.296;2023-06-04T13:21:51;5.65;;;3.20;;
48285;SDS011;34102;47.716;10.296;2023-06-04T13:24:17;5.50;;;3.30;;
48285;SDS011;34102;47.716;10.296;2023-06-04T13:26:42;7.22;;;4.10;;
48285;SDS011;34102;47.716;10.296;2023-06-04T13:29:07;4.10;;;3.40;;
48285;SDS011;34102;47.716;10.296;2023-06-04T13:31:33;5.97;;;3.33;;
48285;SDS011;34102;47.716;10.296;2023-06-04T13:33:58;6.05;;;3.35;;
48285;SDS011;34102;47.716;10.296;2023-06-04T13:36:23;4.63;;;3.53;;
48285;SDS011;34102;47.716;10.296;2023-06-04T13:38:49;5.03;;;3.58;;
48285;SDS011;34102;47.716;10.296;2023-06-04T13:41:17;5.20;;;3.70;;
48285;SDS011;34102;47.716;10.296;2023-06-04T13:43:43;4.70;;;3.38;;
48285;SDS011;34102;47.716;10.296;2023-06-04T13:46:08;4.55;;;3.58;;
48285;SDS011;34102;47.716;10.296;2023-06-04T13:48:33;6.70;;;3.63;;
48285;SDS011;34102;47.716;10.296;2023-06-04T13:50:59;3.70;;;2.85;;
48285;SDS011;34102;47.716;10.296;2023-06-04T13:53:24;4.85;;;3.70;;
48285;SDS011;34102;47.716;10.296;2023-06-04T13:55:49;6.55;;;3.78;;
48285;SDS011;34102;47.716;10.296;2023-06-04T13:58:15;4.97;;;3.45;;
48285;SDS011;34102;47.716;10.296;2023-06-04T14:03:35;7.53;;;3.70;;
48285;SDS011;34102;47.716;10.296;2023-06-04T14:06:01;6.78;;;3.92;;
48285;SDS011;34102;47.716;10.296;2023-06-04T14:08:26;8.40;;;3.65;;
48285;SDS011;34102;47.716;10.296;2023-06-04T14:10:53;6.03;;;3.70;;
48285;SDS011;34102;47.716;10.296;2023-06-04T14:13:20;6.28;;;3.15;;
48285;SDS011;34102;47.716;10.296;2023-06-04T14:15:45;6.68;;;3.58;;
48285;SDS011;34102;47.716;10.296;2023-06-04T14:18:12;7.65;;;3.90;;
48285;SDS011;34102;47.716;10.296;2023-06-04T14:20:37;5.47;;;3.88;;
48285;SDS011;34102;47.716;10.296;2023-06-04T14:23:02;7.10;;;3.67;;
48285;SDS011;34102;47.716;10.296;2023-06-04T14:25:31;6.50;;;3.60;;
48285;SDS011;34102;47.716;10.296;2023-06-04T14:28:00;7.30;;;3.00;;
48285;SDS011;34102;47.716;10.296;2023-06-04T14:30:25;5.45;;;3.05;;
48285;SDS011;34102;47.716;10.296;2023-06-04T14:32:50;4.22;;;3.17;;
48285;SDS011;34102;47.716;10.296;2023-06-04T14:35:16;5.35;;;3.22;;
48285;SDS011;34102;47.716;10.296;2023-06-04T14:37:41;5.78;;;3.72;;
48285;SDS011;34102;47.716;10.296;2023-06-04T14:40:07;7.85;;;3.83;;
48285;SDS011;34102;47.716;10.296;2023-06-04T14:42:33;5.65;;;3.30;;